sensor_id;sensor_type;location;lat;lon;timestamp;noise_LAeq;noise_LA_min;noise_LA_max;noise_LA01;noise_LA95
61095;Laerm;20450;49.074;9.158;2024-03-23T00:52:45;44.25;42.59;49.70;;
61095;Laerm;20450;49.074;9.158;2024-03-23T00:55:11;44.05;42.53;45.51;;
61095;Laerm;20450;49.074;9.158;2024-03-23T00:57:37;43.82;42.53;45.07;;
61095;Laerm;20450;49.074;9.158;2024-03-23T01:00:04;43.99;42.35;45.57;;
61095;Laerm;20450;49.074;9.158;2024-03-23T01:02:31;44.35;42.82;45.66;;
61095;Laerm;20450;49.074;9.158;2024-03-23T01:04:57;44.27;42.41;46.05;;
61095;Laerm;20450;49.074;9.158;2024-03-23T01:07:23;44.05;42.53;45.33;;
61095;Laerm;20450;49.074;9.158;2024-03-23T01:09:50;44.34;42.53;45.77;;
61095;Laerm;20450;49.074;9.158;2024-03-23T01:12:16;44.03;42.22;45.39;;
61095;Laerm;20450;49.074;9.158;2024-03-23T01:14:42;44.12;42.29;45.99;;
61095;Laerm;20450;49.074;9.158;2024-03-23T01:17:08;44.33;42.59;49.50;;
61095;Laerm;20450;49.074;9.158;2024-03-23T01:19:34;44.31;42.35;46.57;;
61095;Laerm;20450;49.074;9.158;2024-03-23T01:22:00;44.42;42.22;46.97;;
61095;Laerm;20450;49.074;9.158;2024-03-23T01:24:26;44.41;42.76;45.77;;
61095;Laerm;20450;49.074;9.158;2024-03-23T01:26:53;44.31;42.82;45.91;;
61095;Laerm;20450;49.074;9.158;2024-03-23T01:29:19;44.37;42.53;46.18;;
61095;Laerm;20450;49.074;9.158;2024-03-23T01:31:45;44.35;42.76;46.25;;
61095;Laerm;20450;49.074;9.158;2024-03-23T01:34:11;44.56;42.65;46.56;;
61095;Laerm;20450;49.074;9.158;2024-03-23T01:36:37;44.67;42.82;48.32;;
61095;Laerm;20450;49.074;9.158;2024-03-23T01:39:03;44.19;41.53;47.30;;
61095;Laerm;20450;49.074;9.158;2024-03-23T01:41:29;44.32;42.59;46.23;;
61095;Laerm;20450;49.074;9.158;2024-03-23T01:43:56;44.36;42.47;46.23;;
61095;Laerm;20450;49.074;9.158;2024-03-23T01:46:22;44.61;42.71;46.78;;
61095;Laerm;20450;49.074;9.158;2024-03-23T01:48:50;44.47;42.76;46.48;;
61095;Laerm;20450;49.074;9.158;2024-03-23T01:51:16;44.16;42.41;45.94;;
61095;Laerm;20450;49.074;9.158;2024-03-23T01:53:42;44.23;42.65;45.69;;
61095;Laerm;20450;49.074;9.158;2024-03-23T01:56:08;44.16;42.53;45.51;;
61095;Laerm;20450;49.074;9.158;2024-03-23T01:58:34;44.47;42.93;47.24;;
61095;Laerm;20450;49.074;9.158;2024-03-23T02:01:02;44.39;42.59;48.49;;
61095;Laerm;20450;49.074;9.158;2024-03-23T02:03:28;44.21;42.41;46.86;;
61095;Laerm;20450;49.074;9.158;2024-03-23T02:05:55;44.32;42.82;45.89;;
61095;Laerm;20450;49.074;9.158;2024-03-23T02:08:23;44.41;42.65;49.30;;
61095;Laerm;20450;49.074;9.158;2024-03-23T02:10:50;44.14;42.53;45.51;;
61095;Laerm;20450;49.074;9.158;2024-03-23T02:13:17;44.08;42.65;45.48;;
61095;Laerm;20450;49.074;9.158;2024-03-23T02:15:44;44.09;42.59;49.93;;
61095;Laerm;20450;49.074;9.158;2024-03-23T02:18:12;43.80;42.09;45.17;;
61095;Laerm;20450;49.074;9.158;2024-03-23T02:20:38;43.75;41.96;45.01;;
61095;Laerm;20450;49.074;9.158;2024-03-23T02:23:05;43.88;42.35;45.14;;
61095;Laerm;20450;49.074;9.158;2024-03-23T02:25:32;43.96;42.59;45.42;;
61095;Laerm;20450;49.074;9.158;2024-03-23T02:27:58;44.29;42.35;46.30;;
61095;Laerm;20450;49.074;9.158;2024-03-23T02:30:24;44.32;42.53;45.91;;
61095;Laerm;20450;49.074;9.158;2024-03-23T02:32:50;44.25;42.82;46.15;;
61095;Laerm;20450;49.074;9.158;2024-03-23T02:35:16;44.27;42.88;45.80;;
61095;Laerm;20450;49.074;9.158;2024-03-23T02:37:42;44.24;42.59;45.80;;
61095;Laerm;20450;49.074;9.158;2024-03-23T02:40:09;44.38;42.82;46.30;;
61095;Laerm;20450;49.074;9.158;2024-03-23T02:42:35;44.19;42.71;45.48;;
61095;Laerm;20450;49.074;9.158;2024-03-23T02:45:01;43.92;42.35;45.57;;
61095;Laerm;20450;49.074;9.158;2024-03-23T02:47:27;43.74;42.22;45.11;;
61095;Laerm;20450;49.074;9.158;2024-03-23T02:49:53;43.59;42.09;44.69;;
61095;Laerm;20450;49.074;9.158;2024-03-23T02:52:19;43.63;42.03;44.87;;
61095;Laerm;20450;49.074;9.158;2024-03-23T02:54:45;43.94;42.41;45.57;;
61095;Laerm;20450;49.074;9.158;2024-03-23T02:57:13;44.07;42.16;45.45;;
61095;Laerm;20450;49.074;9.158;2024-03-23T02:59:39;44.00;42.29;45.51;;
61095;Laerm;20450;49.074;9.158;2024-03-23T03:02:05;44.34;42.76;45.99;;
61095;Laerm;20450;49.074;9.158;2024-03-23T03:04:31;44.22;42.71;46.48;;
61095;Laerm;20450;49.074;9.158;2024-03-23T03:06:57;44.04;42.53;45.27;;
61095;Laerm;20450;49.074;9.158;2024-03-23T03:09:23;43.90;42.53;45.11;;
61095;Laerm;20450;49.074;9.158;2024-03-23T03:11:49;43.80;42.35;44.97;;
61095;Laerm;20450;49.074;9.158;2024-03-23T03:14:16;43.82;42.53;45.11;;
61095;Laerm;20450;49.074;9.158;2024-03-23T03:16:42;43.97;42.47;45.48;;
61095;Laerm;20450;49.074;9.158;2024-03-23T03:19:09;44.02;42.65;45.20;;
61095;Laerm;20450;49.074;9.158;2024-03-23T03:21:35;44.00;42.65;45.42;;
61095;Laerm;20450;49.074;9.158;2024-03-23T03:24:01;43.96;42.53;45.36;;
61095;Laerm;20450;49.074;9.158;2024-03-23T03:26:27;43.85;42.59;45.11;;
61095;Laerm;20450;49.074;9.158;2024-03-23T03:28:54;43.83;42.29;45.07;;
61095;Laerm;20450;49.074;9.158;2024-03-23T03:31:21;43.76;42.35;44.97;;
61095;Laerm;20450;49.074;9.158;2024-03-23T03:33:50;43.97;42.53;45.11;;
61095;Laerm;20450;49.074;9.158;2024-03-23T03:36:16;44.16;42.82;45.83;;
61095;Laerm;20450;49.074;9.158;2024-03-23T03:38:42;44.15;42.76;45.30;;
61095;Laerm;20450;49.074;9.158;2024-03-23T03:41:08;44.04;42.59;45.23;;
61095;Laerm;20450;49.074;9.158;2024-03-23T03:43:34;44.32;42.29;45.86;;
61095;Laerm;20450;49.074;9.158;2024-03-23T03:46:01;44.67;43.29;46.30;;
61095;Laerm;20450;49.074;9.158;2024-03-23T03:48:29;44.95;43.39;46.71;;
61095;Laerm;20450;49.074;9.158;2024-03-23T03:50:55;44.81;42.76;49.67;;
61095;Laerm;20450;49.074;9.158;2024-03-23T03:53:21;45.21;43.04;56.61;;
61095;Laerm;20450;49.074;9.158;2024-03-23T03:55:47;45.33;42.93;55.74;;
61095;Laerm;20450;49.074;9.158;2024-03-23T03:58:13;44.64;42.82;54.61;;
61095;Laerm;20450;49.074;9.158;2024-03-23T04:00:39;44.52;42.76;53.11;;
61095;Laerm;20450;49.074;9.158;2024-03-23T04:03:05;44.72;42.82;51.94;;
61095;Laerm;20450;49.074;9.158;2024-03-23T04:05:33;44.52;42.76;50.97;;
61095;Laerm;20450;49.074;9.158;2024-03-23T04:07:59;44.67;42.82;52.73;;
61095;Laerm;20450;49.074;9.158;2024-03-23T04:10:26;44.80;42.98;53.19;;
61095;Laerm;20450;49.074;9.158;2024-03-23T04:12:53;44.52;42.53;51.89;;
61095;Laerm;20450;49.074;9.158;2024-03-23T04:15:19;44.33;41.96;53.24;;
61095;Laerm;20450;49.074;9.158;2024-03-23T04:17:45;43.98;41.22;53.57;;
61095;Laerm;20450;49.074;9.158;2024-03-23T04:20:11;43.74;41.53;52.64;;
61095;Laerm;20450;49.074;9.158;2024-03-23T04:22:39;43.76;41.53;52.42;;
61095;Laerm;20450;49.074;9.158;2024-03-23T04:25:06;43.88;40.89;53.36;;
61095;Laerm;20450;49.074;9.158;2024-03-23T04:27:32;43.56;40.23;54.33;;
61095;Laerm;20450;49.074;9.158;2024-03-23T04:29:58;43.75;40.53;52.79;;
61095;Laerm;20450;49.074;9.158;2024-03-23T04:32:24;43.65;41.14;54.89;;
61095;Laerm;20450;49.074;9.158;2024-03-23T04:34:50;44.02;41.22;54.04;;
61095;Laerm;20450;49.074;9.158;2024-03-23T04:37:16;44.18;41.14;57.88;;
61095;Laerm;20450;49.074;9.158;2024-03-23T04:39:43;43.87;40.89;54.71;;
61095;Laerm;20450;49.074;9.158;2024-03-23T04:42:09;44.11;40.89;55.65;;
61095;Laerm;20450;49.074;9.158;2024-03-23T04:44:36;44.06;41.26;55.10;;
61095;Laerm;20450;49.074;9.158;2024-03-23T04:47:02;44.37;41.75;59.39;;
61095;Laerm;20450;49.074;9.158;2024-03-23T04:49:28;44.07;41.30;53.29;;
61095;Laerm;20450;49.074;9.158;2024-03-23T04:51:54;44.08;41.53;54.09;;
61095;Laerm;20450;49.074;9.158;2024-03-23T04:54:20;44.02;41.38;54.75;;
61095;Laerm;20450;49.074;9.158;2024-03-23T04:56:50;44.08;41.22;52.26;;
61095;Laerm;20450;49.074;9.158;2024-03-23T04:59:16;43.75;41.30;51.42;;
61095;Laerm;20450;49.074;9.158;2024-03-23T05:01:42;44.16;41.75;55.84;;
61095;Laerm;20450;49.074;9.158;2024-03-23T05:04:08;43.75;40.98;54.48;;
61095;Laerm;20450;49.074;9.158;2024-03-23T05:06:35;43.51;41.30;50.19;;
61095;Laerm;20450;49.074;9.158;2024-03-23T05:09:01;43.12;40.71;47.88;;
61095;Laerm;20450;49.074;9.158;2024-03-23T05:11:27;43.21;40.98;51.33;;
61095;Laerm;20450;49.074;9.158;2024-03-23T05:13:54;43.06;40.43;48.69;;
61095;Laerm;20450;49.074;9.158;2024-03-23T05:16:20;43.07;40.89;50.59;;
61095;Laerm;20450;49.074;9.158;2024-03-23T05:18:46;42.85;40.53;52.63;;
61095;Laerm;20450;49.074;9.158;2024-03-23T05:21:12;42.90;40.71;48.84;;
61095;Laerm;20450;49.074;9.158;2024-03-23T05:23:38;42.99;40.62;53.72;;
61095;Laerm;20450;49.074;9.158;2024-03-23T05:26:04;42.87;40.89;53.58;;
61095;Laerm;20450;49.074;9.158;2024-03-23T05:28:30;42.89;41.06;55.80;;
61095;Laerm;20450;49.074;9.158;2024-03-23T05:30:57;43.11;40.03;50.25;;
61095;Laerm;20450;49.074;9.158;2024-03-23T05:33:23;43.45;41.46;52.30;;
61095;Laerm;20450;49.074;9.158;2024-03-23T05:35:56;55.08;40.62;91.21;;
61095;Laerm;20450;49.074;9.158;2024-03-23T05:38:23;42.93;40.80;45.57;;
61095;Laerm;20450;49.074;9.158;2024-03-23T05:40:53;43.34;41.38;50.97;;
61095;Laerm;20450;49.074;9.158;2024-03-23T05:43:19;44.25;40.13;58.88;;
61095;Laerm;20450;49.074;9.158;2024-03-23T05:45:45;43.15;40.53;49.77;;
61095;Laerm;20450;49.074;9.158;2024-03-23T05:48:13;43.36;40.80;54.78;;
61095;Laerm;20450;49.074;9.158;2024-03-23T05:50:39;43.13;40.89;50.85;;
61095;Laerm;20450;49.074;9.158;2024-03-23T05:53:05;43.26;41.22;48.15;;
61095;Laerm;20450;49.074;9.158;2024-03-23T05:55:31;42.82;40.80;50.54;;
61095;Laerm;20450;49.074;9.158;2024-03-23T05:57:57;43.21;41.06;48.21;;
61095;Laerm;20450;49.074;9.158;2024-03-23T06:00:23;43.20;40.98;50.00;;
61095;Laerm;20450;49.074;9.158;2024-03-23T06:02:49;43.09;40.89;49.03;;
61095;Laerm;20450;49.074;9.158;2024-03-23T06:05:16;43.26;40.53;55.03;;
61095;Laerm;20450;49.074;9.158;2024-03-23T06:07:42;43.12;40.71;54.08;;
61095;Laerm;20450;49.074;9.158;2024-03-23T06:10:08;43.09;40.98;49.77;;
61095;Laerm;20450;49.074;9.158;2024-03-23T06:12:34;43.35;41.14;51.47;;
61095;Laerm;20450;49.074;9.158;2024-03-23T06:15:00;43.35;40.33;51.02;;
61095;Laerm;20450;49.074;9.158;2024-03-23T06:17:26;43.33;41.53;52.30;;
61095;Laerm;20450;49.074;9.158;2024-03-23T06:19:52;43.43;41.30;52.64;;
61095;Laerm;20450;49.074;9.158;2024-03-23T06:22:20;43.34;41.38;53.07;;
61095;Laerm;20450;49.074;9.158;2024-03-23T06:24:46;43.00;40.71;47.26;;
61095;Laerm;20450;49.074;9.158;2024-03-23T06:27:12;45.56;41.06;69.84;;
61095;Laerm;20450;49.074;9.158;2024-03-23T06:29:38;43.17;40.98;53.38;;
61095;Laerm;20450;49.074;9.158;2024-03-23T06:32:05;42.96;40.89;48.45;;
61095;Laerm;20450;49.074;9.158;2024-03-23T06:34:31;42.29;39.46;55.77;;
61095;Laerm;20450;49.074;9.158;2024-03-23T06:36:58;42.57;39.46;52.37;;
61095;Laerm;20450;49.074;9.158;2024-03-23T06:39:25;42.92;39.46;49.60;;
61095;Laerm;20450;49.074;9.158;2024-03-23T06:41:53;43.41;40.13;55.62;;
61095;Laerm;20450;49.074;9.158;2024-03-23T06:44:19;43.59;40.96;55.00;;
61095;Laerm;20450;49.074;9.158;2024-03-23T06:46:45;43.00;41.06;45.42;;
61095;Laerm;20450;49.074;9.158;2024-03-23T06:49:12;42.71;39.92;49.97;;
61095;Laerm;20450;49.074;9.158;2024-03-23T06:51:38;42.98;41.06;44.51;;
61095;Laerm;20450;49.074;9.158;2024-03-23T06:54:04;43.00;40.03;55.12;;
61095;Laerm;20450;49.074;9.158;2024-03-23T06:56:33;43.00;40.53;53.83;;
61095;Laerm;20450;49.074;9.158;2024-03-23T06:58:59;43.14;40.62;49.64;;
61095;Laerm;20450;49.074;9.158;2024-03-23T07:01:25;43.12;40.98;48.85;;
61095;Laerm;20450;49.074;9.158;2024-03-23T07:03:51;43.34;40.62;48.45;;
61095;Laerm;20450;49.074;9.158;2024-03-23T07:06:17;43.00;39.46;49.93;;
61095;Laerm;20450;49.074;9.158;2024-03-23T07:08:43;43.29;40.03;47.00;;
61095;Laerm;20450;49.074;9.158;2024-03-23T07:11:09;43.26;40.80;54.40;;
61095;Laerm;20450;49.074;9.158;2024-03-23T07:13:37;42.69;39.58;48.02;;
61095;Laerm;20450;49.074;9.158;2024-03-23T07:16:03;42.75;40.33;47.02;;
61095;Laerm;20450;49.074;9.158;2024-03-23T07:18:29;43.33;40.53;49.52;;
61095;Laerm;20450;49.074;9.158;2024-03-23T07:20:56;43.37;41.30;46.30;;
61095;Laerm;20450;49.074;9.158;2024-03-23T07:23:23;42.91;40.33;47.21;;
61095;Laerm;20450;49.074;9.158;2024-03-23T07:25:56;43.44;40.89;51.39;;
61095;Laerm;20450;49.074;9.158;2024-03-23T07:28:23;43.17;40.89;48.52;;
61095;Laerm;20450;49.074;9.158;2024-03-23T07:31:02;43.19;41.19;57.19;;
61095;Laerm;20450;49.074;9.158;2024-03-23T07:33:28;43.45;40.62;45.91;;
61095;Laerm;20450;49.074;9.158;2024-03-23T07:35:54;42.89;40.03;47.46;;
61095;Laerm;20450;49.074;9.158;2024-03-23T07:38:20;43.39;41.46;51.69;;
61095;Laerm;20450;49.074;9.158;2024-03-23T07:40:46;44.15;41.46;51.77;;
61095;Laerm;20450;49.074;9.158;2024-03-23T07:43:12;43.64;40.71;50.00;;
61095;Laerm;20450;49.074;9.158;2024-03-23T07:45:38;43.38;40.89;62.07;;
61095;Laerm;20450;49.074;9.158;2024-03-23T07:48:06;43.07;40.80;55.85;;
61095;Laerm;20450;49.074;9.158;2024-03-23T07:50:33;43.44;41.06;47.83;;
61095;Laerm;20450;49.074;9.158;2024-03-23T07:52:59;47.99;40.89;74.90;;
61095;Laerm;20450;49.074;9.158;2024-03-23T07:55:25;43.02;40.98;54.54;;
61095;Laerm;20450;49.074;9.158;2024-03-23T07:57:51;43.26;40.43;58.05;;
61095;Laerm;20450;49.074;9.158;2024-03-23T08:00:18;43.34;40.33;51.15;;
61095;Laerm;20450;49.074;9.158;2024-03-23T08:02:44;43.00;40.89;53.32;;
61095;Laerm;20450;49.074;9.158;2024-03-23T08:05:11;43.62;40.80;58.58;;
61095;Laerm;20450;49.074;9.158;2024-03-23T08:07:37;43.03;40.13;61.79;;
61095;Laerm;20450;49.074;9.158;2024-03-23T08:10:04;43.22;40.33;67.51;;
61095;Laerm;20450;49.074;9.158;2024-03-23T08:12:30;44.01;40.89;59.28;;
61095;Laerm;20450;49.074;9.158;2024-03-23T08:14:59;44.17;42.03;62.74;;
61095;Laerm;20450;49.074;9.158;2024-03-23T08:17:25;43.14;40.62;55.20;;
61095;Laerm;20450;49.074;9.158;2024-03-23T08:19:51;43.40;40.23;59.14;;
61095;Laerm;20450;49.074;9.158;2024-03-23T08:22:19;43.41;41.61;54.31;;
61095;Laerm;20450;49.074;9.158;2024-03-23T08:24:45;43.47;41.14;59.98;;
61095;Laerm;20450;49.074;9.158;2024-03-23T08:27:11;43.37;41.38;55.63;;
61095;Laerm;20450;49.074;9.158;2024-03-23T08:29:37;43.45;41.68;53.60;;
61095;Laerm;20450;49.074;9.158;2024-03-23T08:32:03;43.51;41.38;61.23;;
61095;Laerm;20450;49.074;9.158;2024-03-23T08:34:29;44.03;41.30;65.32;;
61095;Laerm;20450;49.074;9.158;2024-03-23T08:36:55;43.21;41.22;52.50;;
61095;Laerm;20450;49.074;9.158;2024-03-23T08:39:23;43.06;40.89;53.37;;
61095;Laerm;20450;49.074;9.158;2024-03-23T08:41:50;44.11;40.53;53.36;;
61095;Laerm;20450;49.074;9.158;2024-03-23T08:44:16;52.60;44.65;58.80;;
61095;Laerm;20450;49.074;9.158;2024-03-23T08:46:42;59.41;49.07;67.12;;
61095;Laerm;20450;49.074;9.158;2024-03-23T08:49:08;63.22;53.80;69.98;;
61095;Laerm;20450;49.074;9.158;2024-03-23T08:51:34;65.20;55.17;70.80;;
61095;Laerm;20450;49.074;9.158;2024-03-23T08:54:00;63.14;47.30;72.48;;
61095;Laerm;20450;49.074;9.158;2024-03-23T08:56:27;49.51;45.69;61.49;;
61095;Laerm;20450;49.074;9.158;2024-03-23T08:58:53;47.22;44.47;55.85;;
61095;Laerm;20450;49.074;9.158;2024-03-23T09:01:19;47.59;41.75;64.88;;
61095;Laerm;20450;49.074;9.158;2024-03-23T09:03:45;43.14;40.33;49.30;;
61095;Laerm;20450;49.074;9.158;2024-03-23T09:06:13;43.47;41.30;49.46;;
61095;Laerm;20450;49.074;9.158;2024-03-23T09:08:40;43.60;41.53;48.77;;
61095;Laerm;20450;49.074;9.158;2024-03-23T09:11:07;43.66;41.30;51.97;;
61095;Laerm;20450;49.074;9.158;2024-03-23T09:13:36;65.30;40.62;71.26;;
61095;Laerm;20450;49.074;9.158;2024-03-23T09:16:04;64.34;54.21;72.32;;
61095;Laerm;20450;49.074;9.158;2024-03-23T09:18:32;66.32;53.06;73.66;;
61095;Laerm;20450;49.074;9.158;2024-03-23T09:20:58;65.83;53.64;71.75;;
61095;Laerm;20450;49.074;9.158;2024-03-23T09:23:25;64.74;56.55;70.84;;
61095;Laerm;20450;49.074;9.158;2024-03-23T09:25:51;62.70;53.96;68.60;;
61095;Laerm;20450;49.074;9.158;2024-03-23T09:28:17;56.56;50.05;64.42;;
61095;Laerm;20450;49.074;9.158;2024-03-23T09:30:48;54.92;48.77;62.25;;
61095;Laerm;20450;49.074;9.158;2024-03-23T09:33:16;48.16;42.03;56.06;;
61095;Laerm;20450;49.074;9.158;2024-03-23T09:35:43;43.79;41.06;54.81;;
61095;Laerm;20450;49.074;9.158;2024-03-23T09:38:09;47.39;41.53;54.92;;
61095;Laerm;20450;49.074;9.158;2024-03-23T09:40:41;48.80;41.46;55.09;;
61095;Laerm;20450;49.074;9.158;2024-03-23T09:43:07;51.71;42.03;60.54;;
61095;Laerm;20450;49.074;9.158;2024-03-23T09:45:39;53.24;45.77;61.10;;
61095;Laerm;20450;49.074;9.158;2024-03-23T09:48:09;48.41;42.29;59.84;;
61095;Laerm;20450;49.074;9.158;2024-03-23T09:50:40;44.20;41.89;58.51;;
61095;Laerm;20450;49.074;9.158;2024-03-23T09:53:08;47.75;42.29;58.34;;
61095;Laerm;20450;49.074;9.158;2024-03-23T09:55:38;52.45;43.81;75.26;;
61095;Laerm;20450;49.074;9.158;2024-03-23T09:58:05;56.34;45.17;65.82;;
61095;Laerm;20450;49.074;9.158;2024-03-23T10:00:32;47.71;43.46;55.03;;
61095;Laerm;20450;49.074;9.158;2024-03-23T10:02:58;45.99;42.88;52.57;;
61095;Laerm;20450;49.074;9.158;2024-03-23T10:05:25;47.36;43.14;57.95;;
61095;Laerm;20450;49.074;9.158;2024-03-23T10:07:51;48.06;42.09;56.73;;
61095;Laerm;20450;49.074;9.158;2024-03-23T10:10:18;52.82;42.59;64.42;;
61095;Laerm;20450;49.074;9.158;2024-03-23T10:12:45;43.49;41.22;52.09;;
61095;Laerm;20450;49.074;9.158;2024-03-23T10:15:18;48.81;41.53;75.52;;
61095;Laerm;20450;49.074;9.158;2024-03-23T10:17:45;45.52;42.16;58.66;;
61095;Laerm;20450;49.074;9.158;2024-03-23T10:20:11;44.66;42.22;52.74;;
61095;Laerm;20450;49.074;9.158;2024-03-23T10:22:39;44.52;42.53;58.46;;
61095;Laerm;20450;49.074;9.158;2024-03-23T10:25:09;44.08;41.88;57.83;;
61095;Laerm;20450;49.074;9.158;2024-03-23T10:27:36;43.89;41.75;52.50;;
61095;Laerm;20450;49.074;9.158;2024-03-23T10:30:10;44.58;42.03;58.60;;
61095;Laerm;20450;49.074;9.158;2024-03-23T10:32:37;45.28;42.59;51.38;;
61095;Laerm;20450;49.074;9.158;2024-03-23T10:35:22;44.06;41.61;54.46;;
61095;Laerm;20450;49.074;9.158;2024-03-23T10:37:51;43.68;41.75;47.93;;
61095;Laerm;20450;49.074;9.158;2024-03-23T10:40:18;43.70;41.53;59.92;;
61095;Laerm;20450;49.074;9.158;2024-03-23T10:42:44;43.73;41.06;52.56;;
61095;Laerm;20450;49.074;9.158;2024-03-23T10:45:11;44.36;41.75;57.39;;
61095;Laerm;20450;49.074;9.158;2024-03-23T10:47:37;44.51;42.09;59.50;;
61095;Laerm;20450;49.074;9.158;2024-03-23T10:50:04;45.41;41.75;60.10;;
61095;Laerm;20450;49.074;9.158;2024-03-23T10:52:31;43.93;42.16;49.23;;
61095;Laerm;20450;49.074;9.158;2024-03-23T10:55:01;43.82;41.14;48.63;;
61095;Laerm;20450;49.074;9.158;2024-03-23T10:57:34;43.54;40.89;48.61;;
61095;Laerm;20450;49.074;9.158;2024-03-23T11:00:04;43.47;40.23;48.58;;
61095;Laerm;20450;49.074;9.158;2024-03-23T11:02:30;43.26;41.06;46.91;;
61095;Laerm;20450;49.074;9.158;2024-03-23T11:04:56;43.45;41.30;48.52;;
61095;Laerm;20450;49.074;9.158;2024-03-23T11:07:30;43.45;40.71;48.45;;
61095;Laerm;20450;49.074;9.158;2024-03-23T11:09:58;43.51;41.53;45.89;;
61095;Laerm;20450;49.074;9.158;2024-03-23T11:12:27;43.83;41.46;53.10;;
61095;Laerm;20450;49.074;9.158;2024-03-23T11:14:58;43.95;40.98;53.50;;
61095;Laerm;20450;49.074;9.158;2024-03-23T11:17:26;43.52;40.71;49.83;;
61095;Laerm;20450;49.074;9.158;2024-03-23T11:19:57;43.46;41.14;45.69;;
61095;Laerm;20450;49.074;9.158;2024-03-23T11:22:44;43.75;41.46;46.97;;
61095;Laerm;20450;49.074;9.158;2024-03-23T11:25:16;43.58;41.38;49.38;;
61095;Laerm;20450;49.074;9.158;2024-03-23T11:27:44;43.60;41.14;47.95;;
61095;Laerm;20450;49.074;9.158;2024-03-23T11:30:16;43.37;41.22;46.25;;
61095;Laerm;20450;49.074;9.158;2024-03-23T11:32:44;44.00;40.89;53.84;;
61095;Laerm;20450;49.074;9.158;2024-03-23T11:35:24;44.00;41.38;51.91;;
61095;Laerm;20450;49.074;9.158;2024-03-23T11:38:02;43.48;41.22;50.13;;
61095;Laerm;20450;49.074;9.158;2024-03-23T11:40:30;44.23;40.71;54.97;;
61095;Laerm;20450;49.074;9.158;2024-03-23T11:42:58;43.82;41.68;48.03;;
61095;Laerm;20450;49.074;9.158;2024-03-23T11:45:24;43.88;41.38;52.33;;
61095;Laerm;20450;49.074;9.158;2024-03-23T11:48:03;44.62;42.47;50.50;;
61095;Laerm;20450;49.074;9.158;2024-03-23T11:50:29;44.64;41.30;54.46;;
61095;Laerm;20450;49.074;9.158;2024-03-23T11:53:11;43.80;41.61;51.12;;
61095;Laerm;20450;49.074;9.158;2024-03-23T11:55:47;44.20;41.89;49.80;;
61095;Laerm;20450;49.074;9.158;2024-03-23T11:58:15;43.87;41.82;52.54;;
61095;Laerm;20450;49.074;9.158;2024-03-23T12:00:50;44.32;41.53;50.30;;
61095;Laerm;20450;49.074;9.158;2024-03-23T12:03:17;44.62;40.89;55.81;;
61095;Laerm;20450;49.074;9.158;2024-03-23T12:05:49;44.61;40.89;61.63;;
61095;Laerm;20450;49.074;9.158;2024-03-23T12:08:20;43.84;41.38;53.69;;
61095;Laerm;20450;49.074;9.158;2024-03-23T12:10:51;44.36;41.82;50.93;;
61095;Laerm;20450;49.074;9.158;2024-03-23T12:13:19;44.45;41.53;52.30;;
61095;Laerm;20450;49.074;9.158;2024-03-23T12:15:47;45.10;41.96;65.08;;
61095;Laerm;20450;49.074;9.158;2024-03-23T12:18:13;44.89;41.22;55.85;;
61095;Laerm;20450;49.074;9.158;2024-03-23T12:20:40;44.86;42.16;49.77;;
61095;Laerm;20450;49.074;9.158;2024-03-23T12:23:08;44.64;41.68;53.41;;
61095;Laerm;20450;49.074;9.158;2024-03-23T12:25:36;44.90;41.89;51.13;;
61095;Laerm;20450;49.074;9.158;2024-03-23T12:28:04;45.02;42.35;51.73;;
61095;Laerm;20450;49.074;9.158;2024-03-23T12:30:30;45.14;41.30;56.63;;
61095;Laerm;20450;49.074;9.158;2024-03-23T12:32:56;44.48;40.98;55.89;;
61095;Laerm;20450;49.074;9.158;2024-03-23T12:35:22;44.39;42.03;50.97;;
61095;Laerm;20450;49.074;9.158;2024-03-23T12:37:48;44.57;42.35;48.96;;
61095;Laerm;20450;49.074;9.158;2024-03-23T12:40:14;46.44;42.47;72.71;;
61095;Laerm;20450;49.074;9.158;2024-03-23T12:42:40;45.28;41.75;53.68;;
61095;Laerm;20450;49.074;9.158;2024-03-23T12:45:08;45.03;42.47;56.35;;
61095;Laerm;20450;49.074;9.158;2024-03-23T12:47:34;45.70;41.38;62.94;;
61095;Laerm;20450;49.074;9.158;2024-03-23T12:50:01;44.88;42.09;50.77;;
61095;Laerm;20450;49.074;9.158;2024-03-23T12:52:26;44.77;42.41;52.76;;
61095;Laerm;20450;49.074;9.158;2024-03-23T12:54:53;44.41;41.53;55.86;;
61095;Laerm;20450;49.074;9.158;2024-03-23T12:57:18;44.74;41.53;59.57;;
61095;Laerm;20450;49.074;9.158;2024-03-23T12:59:44;45.06;41.75;58.99;;
61095;Laerm;20450;49.074;9.158;2024-03-23T13:02:12;44.73;41.46;57.23;;
61095;Laerm;20450;49.074;9.158;2024-03-23T13:04:38;44.98;42.35;56.29;;
61095;Laerm;20450;49.074;9.158;2024-03-23T13:07:04;44.61;42.35;52.96;;
61095;Laerm;20450;49.074;9.158;2024-03-23T13:09:30;44.52;40.71;58.24;;
61095;Laerm;20450;49.074;9.158;2024-03-23T13:11:56;45.29;41.38;56.94;;
61095;Laerm;20450;49.074;9.158;2024-03-23T13:14:22;45.05;42.09;62.73;;
61095;Laerm;20450;49.074;9.158;2024-03-23T13:16:48;45.00;41.96;56.99;;
61095;Laerm;20450;49.074;9.158;2024-03-23T13:19:15;45.02;42.59;58.10;;
61095;Laerm;20450;49.074;9.158;2024-03-23T13:21:46;45.72;42.93;57.81;;
61095;Laerm;20450;49.074;9.158;2024-03-23T13:24:12;44.88;41.53;56.98;;
61095;Laerm;20450;49.074;9.158;2024-03-23T13:26:38;44.82;41.22;54.66;;
61095;Laerm;20450;49.074;9.158;2024-03-23T13:29:04;44.27;41.22;61.40;;
61095;Laerm;20450;49.074;9.158;2024-03-23T13:31:30;43.98;41.88;50.72;;
61095;Laerm;20450;49.074;9.158;2024-03-23T13:33:57;44.07;41.96;48.51;;
61095;Laerm;20450;49.074;9.158;2024-03-23T13:36:25;44.81;42.59;48.45;;
61095;Laerm;20450;49.074;9.158;2024-03-23T13:38:51;45.66;43.09;52.53;;
61095;Laerm;20450;49.074;9.158;2024-03-23T13:41:17;45.17;42.71;50.61;;
61095;Laerm;20450;49.074;9.158;2024-03-23T13:43:43;44.64;41.68;50.90;;
61095;Laerm;20450;49.074;9.158;2024-03-23T13:46:09;45.93;41.61;63.71;;
61095;Laerm;20450;49.074;9.158;2024-03-23T13:48:35;46.84;43.68;55.76;;
61095;Laerm;20450;49.074;9.158;2024-03-23T13:51:02;47.68;42.35;61.32;;
61095;Laerm;20450;49.074;9.158;2024-03-23T13:53:31;44.51;42.22;55.14;;
61095;Laerm;20450;49.074;9.158;2024-03-23T13:55:57;45.77;42.59;57.60;;
61095;Laerm;20450;49.074;9.158;2024-03-23T13:58:23;44.63;42.35;56.85;;
61095;Laerm;20450;49.074;9.158;2024-03-23T14:00:49;44.45;41.75;59.71;;
61095;Laerm;20450;49.074;9.158;2024-03-23T14:03:15;43.66;41.30;60.98;;
61095;Laerm;20450;49.074;9.158;2024-03-23T14:05:41;43.64;41.22;52.64;;
61095;Laerm;20450;49.074;9.158;2024-03-23T14:08:08;43.91;41.38;55.49;;
61095;Laerm;20450;49.074;9.158;2024-03-23T14:10:40;43.71;40.80;64.35;;
61095;Laerm;20450;49.074;9.158;2024-03-23T14:13:06;54.78;40.71;90.66;;
61095;Laerm;20450;49.074;9.158;2024-03-23T14:15:32;42.85;40.13;54.34;;
61095;Laerm;20450;49.074;9.158;2024-03-23T14:17:59;43.05;40.79;48.70;;
61095;Laerm;20450;49.074;9.158;2024-03-23T14:20:27;43.42;41.38;50.20;;
61095;Laerm;20450;49.074;9.158;2024-03-23T14:22:53;43.67;41.22;53.10;;
61095;Laerm;20450;49.074;9.158;2024-03-23T14:25:19;43.33;41.14;45.01;;
61095;Laerm;20450;49.074;9.158;2024-03-23T14:27:47;43.15;40.71;50.61;;
61095;Laerm;20450;49.074;9.158;2024-03-23T14:30:13;43.51;41.61;58.81;;
61095;Laerm;20450;49.074;9.158;2024-03-23T14:32:40;42.63;39.81;50.41;;
61095;Laerm;20450;49.074;9.158;2024-03-23T14:35:07;42.96;40.13;44.80;;